createdAt,value
2017-11-09T00:01:56.547Z,102007.70
2017-11-09T00:04:29.701Z,102011.58
2017-11-09T00:06:57.402Z,102008.41
2017-11-09T00:09:25.058Z,102007.99
2017-11-09T00:11:52.739Z,102014.37
2017-11-09T00:14:20.400Z,102002.75
2017-11-09T00:16:48.128Z,101991.38
2017-11-09T00:19:15.777Z,101996.77
2017-11-09T00:21:43.440Z,101994.16
2017-11-09T00:24:11.129Z,101996.50
2017-11-09T00:26:38.790Z,102004.53
2017-11-09T00:29:06.496Z,101999.39
2017-11-09T00:31:34.141Z,102000.78
2017-11-09T00:34:01.831Z,102006.44
2017-11-09T00:36:29.502Z,102008.24
2017-11-09T00:38:57.257Z,102012.69
2017-11-09T00:41:24.917Z,102005.77
2017-11-09T00:43:52.599Z,102006.04
2017-11-09T00:46:20.264Z,102003.84
2017-11-09T00:48:47.896Z,102009.65
2017-11-09T00:51:15.571Z,102006.34
2017-11-09T00:53:44.087Z,102007.73
2017-11-09T00:56:11.743Z,102010.07
2017-11-09T00:58:39.368Z,102005.80
2017-11-09T01:01:06.976Z,102008.41
2017-11-09T01:03:34.684Z,102008.29
2017-11-09T01:06:02.339Z,102005.94
2017-11-09T01:08:30.054Z,102013.41
2017-11-09T01:10:57.638Z,102015.09
2017-11-09T01:13:25.285Z,102018.28
2017-11-09T01:15:52.987Z,102016.32
2017-11-09T01:18:20.638Z,102020.09
2017-11-09T01:20:48.330Z,102021.31
2017-11-09T01:23:15.979Z,102016.32
2017-11-09T01:25:43.690Z,102017.86
2017-11-09T01:28:11.354Z,102016.32
2017-11-09T01:30:39.051Z,102014.94
2017-11-09T01:33:06.700Z,102013.16
2017-11-09T01:35:34.406Z,102015.51
2017-11-09T01:38:02.003Z,102016.05
2017-11-09T01:40:29.723Z,102016.05
2017-11-09T01:42:57.379Z,102014.13
2017-11-09T01:45:25.093Z,102016.32
2017-11-09T01:47:52.734Z,102016.05
2017-11-09T01:50:20.417Z,102012.02
2017-11-09T01:52:48.072Z,102009.80
2017-11-09T01:55:15.763Z,102014.91
2017-11-09T01:57:43.416Z,102018.10
2017-11-09T02:00:11.127Z,102012.14
2017-11-09T02:02:38.775Z,102009.80
2017-11-09T02:05:06.402Z,102007.18
2017-11-09T02:07:34.051Z,102008.98
2017-11-09T02:10:01.756Z,102012.56
2017-11-09T02:12:29.431Z,102015.51
2017-11-09T02:14:57.109Z,102014.67
2017-11-09T02:17:24.833Z,102009.82
2017-11-09T02:19:52.491Z,102007.89
2017-11-09T02:22:20.195Z,102005.55
2017-11-09T02:24:47.864Z,102013.16
2017-11-09T02:27:15.596Z,102016.32
2017-11-09T02:29:43.271Z,102012.17
2017-11-09T02:32:11.012Z,102017.86
2017-11-09T02:34:38.676Z,102013.16
2017-11-09T02:37:06.321Z,102014.13
2017-11-09T02:39:34.021Z,102014.13
2017-11-09T02:42:01.659Z,102003.48
2017-11-09T02:44:29.317Z,102000.83
2017-11-09T02:46:57.010Z,101989.33
2017-11-09T02:49:24.599Z,101989.03
2017-11-09T02:51:52.253Z,101989.61
2017-11-09T02:54:30.663Z,101994.16
2017-11-09T02:56:59.109Z,101987.92
2017-11-09T02:59:27.673Z,101982.66
2017-11-09T03:01:55.294Z,101983.88
2017-11-09T03:04:22.944Z,101992.59
2017-11-09T03:06:50.604Z,101994.82
2017-11-09T03:09:18.313Z,101993.05
2017-11-09T03:11:45.976Z,101994.84
2017-11-09T03:14:13.607Z,101998.03
2017-11-09T03:16:41.231Z,102002.06
2017-11-09T03:19:08.940Z,102001.91
2017-11-09T03:21:36.599Z,102003.30
2017-11-09T03:24:04.286Z,102005.10
2017-11-09T03:26:31.926Z,102007.45
2017-11-09T03:28:59.621Z,102008.56
2017-11-09T03:31:27.285Z,102014.52
2017-11-09T03:33:54.918Z,102012.84
2017-11-09T03:36:22.569Z,102014.77
2017-11-09T03:38:50.299Z,102013.11
2017-11-09T03:41:17.969Z,102007.16
2017-11-09T03:43:45.675Z,102011.03
2017-11-09T03:46:13.378Z,102003.84
2017-11-09T03:48:41.076Z,101999.09
2017-11-09T03:51:08.725Z,101990.64
2017-11-09T03:53:36.408Z,101992.87
2017-11-09T03:56:04.082Z,101988.17
2017-11-09T03:58:31.786Z,101985.25
2017-11-09T04:00:59.445Z,101987.36
2017-11-09T04:03:27.064Z,101988.63
2017-11-09T04:05:54.720Z,101987.62
2017-11-09T04:08:22.419Z,101989.28
2017-11-09T04:10:50.073Z,101984.30
2017-11-09T04:13:17.819Z,101983.45
2017-11-09T04:15:45.483Z,101981.50
2017-11-09T04:18:13.182Z,101985.38
2017-11-09T04:20:40.846Z,101984.69
2017-11-09T04:23:08.507Z,101982.20
2017-11-09T04:25:36.123Z,101978.16
2017-11-09T04:28:03.771Z,101979.13
2017-11-09T04:30:31.407Z,101977.20
2017-11-09T04:32:59.068Z,101972.91
2017-11-09T04:35:26.784Z,101971.22
2017-11-09T04:37:54.360Z,101968.87
2017-11-09T04:40:22.022Z,101979.10
2017-11-09T04:42:49.681Z,101983.25
2017-11-09T04:45:17.365Z,101971.94
2017-11-09T04:47:45.025Z,101976.09
2017-11-09T04:50:12.725Z,101976.91
2017-11-09T04:52:40.363Z,101974.02
2017-11-09T04:55:08.059Z,101974.02
2017-11-09T04:57:35.704Z,101969.59
2017-11-09T05:00:03.438Z,101966.25
2017-11-09T05:02:31.096Z,101964.87
2017-11-09T05:04:58.754Z,101967.64
2017-11-09T05:07:26.444Z,101971.12
2017-11-09T05:09:54.110Z,101975.39
2017-11-09T05:12:21.739Z,101974.29
2017-11-09T05:14:49.329Z,101965.02
2017-11-09T05:17:16.953Z,101962.25
2017-11-09T05:19:44.608Z,101968.75
2017-11-09T05:22:12.296Z,101972.75
2017-11-09T05:24:39.967Z,101972.09
2017-11-09T05:27:07.675Z,101971.79
2017-11-09T05:29:35.278Z,101970.98
2017-11-09T05:32:02.910Z,101974.86
2017-11-09T05:34:30.560Z,101977.89
2017-11-09T05:36:58.278Z,101980.41
2017-11-09T05:39:25.873Z,101975.30
2017-11-09T05:41:53.507Z,101978.48
2017-11-09T05:44:21.107Z,101983.06
2017-11-09T05:46:48.755Z,101980.41
2017-11-09T05:49:16.355Z,101973.73
2017-11-09T05:51:44.000Z,101978.73
2017-11-09T05:54:11.592Z,101967.39
2017-11-09T05:56:39.219Z,101968.05
2017-11-09T05:59:06.832Z,101969.44
2017-11-09T06:01:34.499Z,101968.36
2017-11-09T06:04:02.102Z,101965.05
2017-11-09T06:06:29.697Z,101967.66
2017-11-09T06:08:57.321Z,101963.09
2017-11-09T06:11:24.930Z,101958.94
2017-11-09T06:13:52.548Z,101963.66
2017-11-09T06:16:20.139Z,101961.86
2017-11-09T06:18:47.773Z,101958.39
2017-11-09T06:21:15.389Z,101958.94
2017-11-09T06:23:43.038Z,101954.36
2017-11-09T06:26:10.638Z,101956.89
2017-11-09T06:28:38.263Z,101961.58
2017-11-09T06:31:05.860Z,101967.24
2017-11-09T06:33:33.505Z,101966.03
2017-11-09T06:36:01.135Z,101968.10
2017-11-09T06:38:28.776Z,101977.25
2017-11-09T06:40:56.379Z,101976.70
2017-11-09T06:43:24.028Z,101975.59
2017-11-09T06:45:51.622Z,101963.55
2017-11-09T06:48:19.251Z,101967.59
2017-11-09T06:50:46.863Z,101971.05
2017-11-09T06:53:14.650Z,101971.88
2017-11-09T06:55:42.253Z,101971.64
2017-11-09T06:58:09.843Z,101974.67
2017-11-09T07:00:37.476Z,101977.32
2017-11-09T07:03:05.068Z,101971.93
2017-11-09T07:05:32.705Z,101978.43
2017-11-09T07:08:00.305Z,101979.15
2017-11-09T07:10:27.985Z,101975.27
2017-11-09T07:12:55.579Z,101986.09
2017-11-09T07:15:23.223Z,101986.23
2017-11-09T07:17:50.820Z,101989.84
2017-11-09T07:20:18.539Z,101988.19
2017-11-09T07:22:46.215Z,101989.87
2017-11-09T07:25:13.920Z,101985.44
2017-11-09T07:27:41.591Z,101986.14
2017-11-09T07:30:09.310Z,101980.87
2017-11-09T07:32:36.969Z,101976.45
2017-11-09T07:35:04.616Z,101982.25
2017-11-09T07:37:32.243Z,101981.71
2017-11-09T07:39:59.879Z,101976.05
2017-11-09T07:42:27.554Z,101974.09
2017-11-09T07:44:55.183Z,101967.32
2017-11-09T07:47:22.777Z,101966.06
2017-11-09T07:49:50.419Z,101964.41
2017-11-09T07:52:18.090Z,101961.64
2017-11-09T07:54:45.783Z,101967.45
2017-11-09T07:57:13.447Z,101956.94
2017-11-09T07:59:41.147Z,101949.87
2017-11-09T08:02:08.803Z,101956.52
2017-11-09T08:04:36.488Z,101961.63
2017-11-09T08:07:04.146Z,101960.83
2017-11-09T08:09:31.903Z,101959.03
2017-11-09T08:11:59.680Z,101958.49
2017-11-09T08:14:27.404Z,101952.55
2017-11-09T08:16:55.112Z,101957.70
2017-11-09T08:19:22.780Z,101952.72
2017-11-09T08:21:50.497Z,101957.88
2017-11-09T08:24:19.976Z,101963.31
2017-11-09T08:26:50.397Z,101958.58
2017-11-09T08:29:21.061Z,101959.17
2017-11-09T08:31:51.927Z,101954.77
2017-11-09T08:34:19.590Z,101960.02
2017-11-09T08:36:47.287Z,101962.55
2017-11-09T08:39:15.006Z,101965.04
2017-11-09T08:41:42.710Z,101961.33
2017-11-09T08:44:10.365Z,101965.92
2017-11-09T08:46:38.068Z,101959.55
2017-11-09T08:49:05.740Z,101961.63
2017-11-09T08:51:33.424Z,101965.53
2017-11-09T08:54:01.088Z,101959.87
2017-11-09T08:56:28.832Z,101953.34
2017-11-09T08:58:56.491Z,101953.94
2017-11-09T09:01:24.145Z,101955.59
2017-11-09T09:03:51.861Z,101949.91
2017-11-09T09:06:19.527Z,101950.75
2017-11-09T09:08:47.257Z,101951.02
2017-11-09T09:11:14.956Z,101947.59
2017-11-09T09:13:42.723Z,101939.53
2017-11-09T09:16:10.404Z,101946.50
2017-11-09T09:18:38.111Z,101935.72
2017-11-09T09:21:09.310Z,101933.80
2017-11-09T09:23:37.024Z,101931.42
2017-11-09T09:26:10.260Z,101926.05
2017-11-09T09:28:38.008Z,101922.59
2017-11-09T09:31:05.650Z,101922.05
2017-11-09T09:33:36.899Z,101922.91
2017-11-09T09:36:07.158Z,101920.55
2017-11-09T09:38:42.304Z,101915.02
2017-11-09T09:41:10.021Z,101910.86
2017-11-09T09:43:37.695Z,101908.22
2017-11-09T09:46:05.322Z,101905.32
2017-11-09T09:48:33.005Z,101898.25
2017-11-09T09:51:00.798Z,101900.50
2017-11-09T09:53:28.523Z,101903.70
2017-11-09T09:55:56.176Z,101901.63
2017-11-09T09:58:23.880Z,101898.30
2017-11-09T10:00:51.525Z,101892.77
2017-11-09T10:03:19.250Z,101894.59
2017-11-09T10:05:46.880Z,101895.98
2017-11-09T10:08:14.539Z,101897.92
2017-11-09T10:10:42.140Z,101887.13
2017-11-09T10:13:09.775Z,101884.73
2017-11-09T10:15:37.381Z,101889.06
2017-11-09T10:18:05.021Z,101883.09
2017-11-09T10:20:32.634Z,101881.16
2017-11-09T10:23:00.286Z,101886.98
2017-11-09T10:25:27.882Z,101886.02
2017-11-09T10:27:55.564Z,101885.89
2017-11-09T10:30:23.163Z,101881.31
2017-11-09T10:32:50.827Z,101881.58
2017-11-09T10:35:18.457Z,101884.52
2017-11-09T10:37:46.055Z,101893.11
2017-11-09T10:40:13.689Z,101894.24
2017-11-09T10:42:41.313Z,101887.56
2017-11-09T10:45:08.952Z,101889.24
2017-11-09T10:47:36.576Z,101890.20
2017-11-09T10:50:04.205Z,101888.81
2017-11-09T10:52:31.839Z,101868.69
2017-11-09T10:54:59.485Z,101868.70
2017-11-09T10:57:27.097Z,101865.52
2017-11-09T10:59:54.732Z,101868.88
2017-11-09T11:02:22.353Z,101856.97
2017-11-09T11:04:49.998Z,101847.25
2017-11-09T11:07:17.620Z,101850.16
2017-11-09T11:09:45.275Z,101844.44
2017-11-09T11:12:12.894Z,101830.41
2017-11-09T11:14:40.535Z,101821.11
2017-11-09T11:17:08.156Z,101811.22
2017-11-09T11:19:35.842Z,101814.41
2017-11-09T11:22:07.306Z,101815.96
2017-11-09T11:24:34.959Z,101826.64
2017-11-09T11:27:02.641Z,101819.69
2017-11-09T11:29:30.372Z,101826.91
2017-11-09T11:31:58.094Z,101817.19
2017-11-09T11:34:25.781Z,101811.50
2017-11-09T11:36:53.460Z,101819.16
2017-11-09T11:39:21.062Z,101821.34
2017-11-09T11:41:48.721Z,101831.90
2017-11-09T11:44:16.328Z,101833.81
2017-11-09T11:46:44.104Z,101832.52
2017-11-09T11:49:11.830Z,101840.27
2017-11-09T11:51:39.542Z,101843.05
2017-11-09T11:54:07.224Z,101841.10
2017-11-09T11:56:34.932Z,101848.31
2017-11-09T11:59:02.611Z,101849.84
2017-11-09T12:01:30.306Z,101842.30
2017-11-09T12:03:57.986Z,101846.23
2017-11-09T12:06:25.650Z,101842.50
2017-11-09T12:08:53.273Z,101845.27
2017-11-09T12:11:20.991Z,101849.29
2017-11-09T12:13:48.601Z,101849.59
2017-11-09T12:16:16.301Z,101843.93
2017-11-09T12:18:43.988Z,101838.81
2017-11-09T12:21:11.632Z,101837.14
2017-11-09T12:23:39.320Z,101833.81
2017-11-09T12:26:07.028Z,101833.52
2017-11-09T12:28:34.714Z,101828.39
2017-11-09T12:31:03.308Z,101825.23
2017-11-09T12:33:30.983Z,101829.66
2017-11-09T12:35:58.647Z,101822.29
2017-11-09T12:38:26.302Z,101821.05
2017-11-09T12:40:54.036Z,101825.59
2017-11-09T12:43:21.689Z,101834.77
2017-11-09T12:45:49.370Z,101831.44
2017-11-09T12:50:36.843Z,101822.53
2017-11-09T12:53:04.556Z,101814.84
2017-11-09T12:55:32.246Z,101818.44
2017-11-09T12:58:00.000Z,101822.61
2017-11-09T13:00:27.669Z,101826.48
2017-11-09T13:02:55.389Z,101822.45
2017-11-09T13:05:23.070Z,101815.38
2017-11-09T13:07:50.734Z,101818.84
2017-11-09T13:10:18.335Z,101813.80
2017-11-09T13:12:46.104Z,101819.59
2017-11-09T13:15:13.801Z,101814.20
2017-11-09T13:17:41.517Z,101817.67
2017-11-09T13:20:09.210Z,101810.48
2017-11-09T13:22:36.929Z,101813.84
2017-11-09T13:25:04.547Z,101806.07
2017-11-09T13:27:32.295Z,101803.61
2017-11-09T13:29:59.973Z,101797.52
2017-11-09T13:32:27.766Z,101787.94
2017-11-09T13:34:55.433Z,101782.78
2017-11-09T13:37:23.152Z,101780.11
2017-11-09T13:39:50.933Z,101779.81
2017-11-09T13:42:18.612Z,101781.27
2017-11-09T13:44:46.237Z,101779.30
2017-11-09T13:47:13.899Z,101785.44
2017-11-09T13:49:41.595Z,101789.42
2017-11-09T13:52:09.243Z,101790.24
2017-11-09T13:54:36.947Z,101778.41
2017-11-09T13:57:04.619Z,101771.45
2017-11-09T13:59:32.339Z,101775.77
2017-11-09T14:02:00.009Z,101764.80
2017-11-09T14:04:27.728Z,101766.08
2017-11-09T14:06:55.323Z,101771.36
2017-11-09T14:09:23.053Z,101765.94
2017-11-09T14:11:50.753Z,101765.39
2017-11-09T14:14:18.458Z,101760.80
2017-11-09T14:16:46.093Z,101763.87
2017-11-09T14:19:13.760Z,101766.94
2017-11-09T14:21:41.457Z,101776.80
2017-11-09T14:24:09.226Z,101777.66
2017-11-09T14:26:36.875Z,101765.28
2017-11-09T14:29:04.564Z,101766.12
2017-11-09T14:31:32.240Z,101764.02
2017-11-09T14:33:59.914Z,101760.03
2017-11-09T14:36:27.612Z,101765.44
2017-11-09T14:38:55.228Z,101764.91
2017-11-09T14:41:22.873Z,101760.91
2017-11-09T14:43:50.543Z,101752.00
2017-11-09T14:46:18.189Z,101752.59
2017-11-09T14:48:45.850Z,101752.05
2017-11-09T14:51:13.514Z,101754.42
2017-11-09T14:53:41.198Z,101742.34
2017-11-09T14:56:08.908Z,101737.77
2017-11-09T14:58:36.572Z,101731.94
2017-11-09T15:01:04.275Z,101738.75
2017-11-09T15:03:31.896Z,101730.55
2017-11-09T15:05:59.642Z,101729.17
2017-11-09T15:08:27.341Z,101721.98
2017-11-09T15:10:55.071Z,101716.02
2017-11-09T15:13:22.734Z,101721.28
2017-11-09T15:15:55.321Z,101714.77
2017-11-09T15:18:22.921Z,101718.93
2017-11-09T15:20:50.617Z,101713.51
2017-11-09T15:23:18.278Z,101714.08
2017-11-09T15:25:45.968Z,101715.31
2017-11-09T15:28:13.624Z,101706.61
2017-11-09T15:30:41.271Z,101694.80
2017-11-09T15:33:09.035Z,101692.98
2017-11-09T15:35:37.638Z,101689.24
2017-11-09T15:38:05.280Z,101699.38
2017-11-09T15:40:33.021Z,101688.95
2017-11-09T15:43:00.719Z,101691.60
2017-11-09T15:45:28.406Z,101697.87
2017-11-09T15:47:56.107Z,101693.72
2017-11-09T15:50:24.074Z,101695.11
2017-11-09T15:52:51.782Z,101693.56
2017-11-09T15:55:19.424Z,101689.40
2017-11-09T15:57:47.070Z,101690.66
2017-11-09T16:00:14.788Z,101686.80
2017-11-09T16:02:42.515Z,101689.44
2017-11-09T16:05:10.197Z,101683.61
2017-11-09T16:07:39.681Z,101684.03
2017-11-09T16:10:07.350Z,101687.62
2017-11-09T16:12:35.001Z,101685.39
2017-11-09T16:15:02.684Z,101681.78
2017-11-09T16:17:30.333Z,101683.05
2017-11-09T16:19:57.973Z,101683.19
2017-11-09T16:22:25.641Z,101687.77
2017-11-09T16:24:53.390Z,101687.36
2017-11-09T16:27:23.083Z,101689.88
2017-11-09T16:29:50.869Z,101691.69
2017-11-09T16:32:18.593Z,101681.58
2017-11-09T16:34:46.318Z,101674.22
2017-11-09T16:37:14.027Z,101656.33
2017-11-09T16:39:41.828Z,101645.66
2017-11-09T16:42:09.570Z,101653.02
2017-11-09T16:44:37.306Z,101663.72
2017-11-09T16:47:05.028Z,101670.78
2017-11-09T16:49:32.689Z,101667.87
2017-11-09T16:52:00.345Z,101662.88
2017-11-09T16:54:28.040Z,101673.83
2017-11-09T16:56:55.722Z,101665.22
2017-11-09T16:59:23.372Z,101653.30
2017-11-09T17:01:51.043Z,101656.22
2017-11-09T17:04:18.737Z,101661.77
2017-11-09T17:06:46.401Z,101664.80
2017-11-09T17:09:14.121Z,101666.48
2017-11-09T17:11:41.760Z,101666.89
2017-11-09T17:14:09.415Z,101680.19
2017-11-09T17:16:37.023Z,101678.08
2017-11-09T17:19:04.648Z,101680.84
2017-11-09T17:21:32.292Z,101674.34
2017-11-09T17:23:59.899Z,101664.78
2017-11-09T17:26:27.552Z,101655.23
2017-11-09T17:28:55.173Z,101658.27
2017-11-09T17:31:22.854Z,101658.42
2017-11-09T17:33:50.472Z,101658.55
2017-11-09T17:36:18.123Z,101666.31
2017-11-09T17:38:45.744Z,101664.37
2017-11-09T17:41:16.479Z,101673.23
2017-11-09T17:43:49.100Z,101682.09
2017-11-09T17:46:16.798Z,101670.88
2017-11-09T17:48:44.460Z,101678.05
2017-11-09T17:51:13.935Z,101675.70
2017-11-09T17:53:41.548Z,101678.76
2017-11-09T17:56:09.276Z,101674.61
2017-11-09T17:58:37.828Z,101674.06
2017-11-09T18:01:05.528Z,101673.78
2017-11-09T18:03:35.031Z,101681.69
2017-11-09T18:06:02.657Z,101673.80
2017-11-09T18:08:30.270Z,101674.91
2017-11-09T18:10:57.968Z,101679.20
2017-11-09T18:13:25.575Z,101681.86
2017-11-09T18:15:53.216Z,101682.28
2017-11-09T18:18:20.821Z,101664.94
2017-11-09T18:20:48.491Z,101664.69
2017-11-09T18:23:16.085Z,101655.53
2017-11-09T18:25:43.728Z,101655.95
2017-11-09T18:28:11.367Z,101660.37
2017-11-09T18:30:39.044Z,101666.20
2017-11-09T18:33:06.652Z,101657.17
2017-11-09T18:35:34.260Z,101651.79
2017-11-09T18:38:01.904Z,101657.17
2017-11-09T18:40:29.535Z,101651.50
2017-11-09T18:42:57.160Z,101654.81
2017-11-09T18:45:24.771Z,101660.91
2017-11-09T18:47:52.476Z,101662.59
2017-11-09T18:50:20.085Z,101663.68
2017-11-09T18:52:47.738Z,101660.48
2017-11-09T18:55:15.340Z,101660.78
2017-11-09T18:57:43.017Z,101659.94
2017-11-09T19:00:10.704Z,101653.84
2017-11-09T19:02:38.485Z,101649.55
2017-11-09T19:05:06.143Z,101638.17
2017-11-09T19:07:33.800Z,101638.89
2017-11-09T19:10:01.409Z,101631.54
2017-11-09T19:12:29.073Z,101638.47
2017-11-09T19:14:56.695Z,101634.45
2017-11-09T19:17:24.292Z,101635.83
2017-11-09T19:19:52.009Z,101622.27
2017-11-09T19:22:19.622Z,101616.00
2017-11-09T19:24:47.382Z,101610.88
2017-11-09T19:27:15.086Z,101609.78
2017-11-09T19:29:42.797Z,101613.52
2017-11-09T19:32:10.551Z,101614.23
2017-11-09T19:34:38.184Z,101607.44
2017-11-09T19:37:05.781Z,101609.91
2017-11-09T19:39:33.446Z,101603.41
2017-11-09T19:42:01.037Z,101599.11
2017-11-09T19:44:28.696Z,101598.95
2017-11-09T19:46:56.391Z,101598.69
2017-11-09T19:49:24.105Z,101588.44
2017-11-09T19:51:51.738Z,101591.47
2017-11-09T19:54:19.375Z,101592.44
2017-11-09T19:56:46.993Z,101599.53
2017-11-09T19:59:14.699Z,101593.82
2017-11-09T20:01:42.367Z,101589.23
2017-11-09T20:04:10.028Z,101600.49
2017-11-09T20:06:37.735Z,101599.10
2017-11-09T20:09:05.447Z,101599.52
2017-11-09T20:11:33.166Z,101595.20
2017-11-09T20:14:00.852Z,101601.16
2017-11-09T20:16:28.550Z,101591.88
2017-11-09T20:18:56.143Z,101584.81
2017-11-09T20:21:23.857Z,101594.52
2017-11-09T20:23:51.538Z,101595.36
2017-11-09T20:26:19.289Z,101588.27
2017-11-09T20:28:46.900Z,101586.88
2017-11-09T20:31:14.616Z,101581.77
2017-11-09T20:33:42.232Z,101582.59
2017-11-09T20:36:09.873Z,101579.95
2017-11-09T20:38:37.460Z,101582.17
2017-11-09T20:41:05.117Z,101578.56
2017-11-09T20:43:32.791Z,101578.31
2017-11-09T20:46:00.457Z,101578.56
2017-11-09T20:48:28.126Z,101571.93
2017-11-09T20:50:55.779Z,101565.55
2017-11-09T20:53:23.458Z,101556.69
2017-11-09T20:55:51.112Z,101554.04
2017-11-09T20:58:18.780Z,101559.33
2017-11-09T21:00:46.430Z,101557.37
2017-11-09T21:03:14.092Z,101555.17
2017-11-09T21:05:41.695Z,101555.59
2017-11-09T21:08:09.417Z,101556.41
2017-11-09T21:10:37.087Z,101558.38
2017-11-09T21:13:04.792Z,101553.09
2017-11-09T21:15:32.452Z,101550.86
2017-11-09T21:18:00.147Z,101551.03
2017-11-09T21:20:27.752Z,101547.97
2017-11-09T21:22:55.740Z,101549.09
2017-11-09T21:25:23.337Z,101559.22
2017-11-09T21:27:50.968Z,101561.28
2017-11-09T21:30:18.573Z,101560.44
2017-11-09T21:32:46.258Z,101555.45
2017-11-09T21:35:13.847Z,101545.07
2017-11-09T21:37:41.569Z,101544.36
2017-11-09T21:40:09.158Z,101545.62
2017-11-09T21:42:36.802Z,101546.58
2017-11-09T21:45:04.430Z,101550.20
2017-11-09T21:47:32.027Z,101541.20
2017-11-09T21:49:59.709Z,101533.27
2017-11-09T21:52:27.323Z,101536.88
2017-11-09T21:54:55.011Z,101532.47
2017-11-09T21:57:22.651Z,101527.05
2017-11-09T21:59:50.364Z,101519.83
2017-11-09T22:02:17.958Z,101516.52
2017-11-09T22:04:45.683Z,101511.94
2017-11-09T22:07:13.375Z,101514.58
2017-11-09T22:09:41.087Z,101521.80
2017-11-09T22:12:08.690Z,101525.80
2017-11-09T22:14:36.333Z,101516.92
2017-11-09T22:17:03.981Z,101514.57
2017-11-09T22:19:31.629Z,101520.80
2017-11-09T22:21:59.231Z,101517.05
2017-11-09T22:24:26.960Z,101513.44
2017-11-09T22:26:54.568Z,101517.59
2017-11-09T22:29:22.202Z,101519.56
2017-11-09T22:31:49.873Z,101508.05
2017-11-09T22:34:18.033Z,101512.63
2017-11-09T22:36:45.645Z,101508.47
2017-11-09T22:39:13.328Z,101507.75
2017-11-09T22:41:41.048Z,101514.27
2017-11-09T22:44:08.752Z,101512.75
2017-11-09T22:46:36.357Z,101508.03
2017-11-09T22:49:04.083Z,101507.87
2017-11-09T22:51:31.774Z,101505.68
2017-11-09T22:53:59.501Z,101505.38
2017-11-09T22:56:27.174Z,101500.52
2017-11-09T22:58:54.846Z,101500.67
2017-11-09T23:01:22.556Z,101496.09
2017-11-09T23:03:50.218Z,101490.80
2017-11-09T23:06:17.920Z,101497.30
2017-11-09T23:08:45.582Z,101489.98
2017-11-09T23:11:13.315Z,101489.15
2017-11-09T23:13:40.992Z,101488.98
2017-11-09T23:16:08.685Z,101483.31
2017-11-09T23:18:36.358Z,101489.56
2017-11-09T23:21:04.092Z,101492.88
2017-11-09T23:23:31.748Z,101483.72
2017-11-09T23:25:59.455Z,101474.44
2017-11-09T23:28:27.728Z,101479.43
2017-11-09T23:30:55.438Z,101471.36
2017-11-09T23:33:23.045Z,101474.42
2017-11-09T23:35:50.650Z,101466.11
2017-11-09T23:38:18.350Z,101464.97
2017-11-09T23:40:46.044Z,101459.16
2017-11-09T23:43:13.760Z,101456.64
2017-11-09T23:45:41.419Z,101446.94
2017-11-09T23:48:09.121Z,101446.38
2017-11-09T23:50:36.785Z,101446.13
2017-11-09T23:53:04.490Z,101446.38
2017-11-09T23:55:32.154Z,101447.08
2017-11-09T23:57:59.810Z,101442.50
